Heppner, Oregon
Current Conditions -  °F | °C
As of 9:53 AM on Friday 28 Nov 2014 (Local Time) from KHRI Reporting Station
Few Clouds Few Clouds  
Wind Chill: 56°   Ceiling: Unl
Heat Index: 56°   Visibility: 10mi
Dew Point: 47°   Wind: 3mph
Humidity: 72%   Direction: 350°N
Pressure: 29.58"   Gusts: NA
Location:  45.35°N, 119.56°W
Report Text: KHRI 281753Z AUTO 35003KT 10SM FEW075 13/08 A2958 RMK AO2 SLP014 60000 T01330083 10133 20106 58017
Loading
Personal Weather Stations






























Interactive Weather Map New forecast layout! Learn more

10-Day Weather Forecast

Advertisements
Track Severe Weather on mobile